createdAt,value
2023-05-15T00:02:16.890Z,64.82
2023-05-15T00:04:45.786Z,64.84
2023-05-15T00:07:15.048Z,65.44
2023-05-15T00:09:43.530Z,64.85
2023-05-15T00:12:12.014Z,64.87
2023-05-15T00:14:40.442Z,65.42
2023-05-15T00:17:10.468Z,65.65
2023-05-15T00:19:38.905Z,65.75
2023-05-15T00:22:07.526Z,65.42
2023-05-15T00:24:36.267Z,64.82
2023-05-15T00:27:04.794Z,65.02
2023-05-15T00:29:33.175Z,65.45
2023-05-15T00:32:01.552Z,65.07
2023-05-15T00:34:31.288Z,65.29
2023-05-15T00:37:00.502Z,65.00
2023-05-15T00:39:28.928Z,65.35
2023-05-15T00:42:00.065Z,65.15
2023-05-15T00:44:31.752Z,66.22
2023-05-15T00:47:02.532Z,66.28
2023-05-15T00:49:35.498Z,66.34
2023-05-15T00:52:04.529Z,66.42
2023-05-15T00:54:32.987Z,66.42
2023-05-15T00:57:01.999Z,66.90
2023-05-15T00:59:33.011Z,67.32
2023-05-15T01:02:01.583Z,66.68
2023-05-15T01:04:31.457Z,67.21
2023-05-15T01:07:00.177Z,67.59
2023-05-15T01:09:32.468Z,67.68
2023-05-15T01:12:02.201Z,67.98
2023-05-15T01:14:30.756Z,68.07
2023-05-15T01:16:59.430Z,68.10
2023-05-15T01:19:28.152Z,67.92
2023-05-15T01:22:35.015Z,68.07
2023-05-15T01:25:45.780Z,68.04
2023-05-15T01:28:21.159Z,68.09
2023-05-15T01:30:50.863Z,67.53
2023-05-15T01:33:24.385Z,67.58
2023-05-15T01:35:59.197Z,68.24
2023-05-15T01:38:36.434Z,67.90
2023-05-15T01:41:12.698Z,68.23
2023-05-15T01:43:46.805Z,68.44
2023-05-15T01:46:19.093Z,68.62
2023-05-15T01:48:49.574Z,68.01
2023-05-15T01:51:19.183Z,68.39
2023-05-15T01:53:48.829Z,68.21
2023-05-15T01:56:20.036Z,68.32
2023-05-15T01:58:50.697Z,68.87
2023-05-15T02:01:19.781Z,69.75
2023-05-15T02:03:48.962Z,69.90
2023-05-15T02:06:18.160Z,69.74
2023-05-15T02:08:49.441Z,70.14
2023-05-15T02:11:17.880Z,71.21
2023-05-15T02:13:50.367Z,72.22
2023-05-15T02:16:19.079Z,72.07
2023-05-15T02:18:47.507Z,72.19
2023-05-15T02:21:16.598Z,74.59
2023-05-15T02:23:45.119Z,72.28
2023-05-15T02:26:31.861Z,72.36
2023-05-15T02:29:15.048Z,73.27
2023-05-15T02:32:01.648Z,73.07
2023-05-15T02:34:40.982Z,73.08
2023-05-15T02:37:16.138Z,72.99
2023-05-15T02:39:46.119Z,72.26
2023-05-15T02:42:16.071Z,72.79
2023-05-15T02:44:46.715Z,71.09
2023-05-15T02:47:16.773Z,71.70
2023-05-15T02:49:45.794Z,72.12
2023-05-15T02:52:14.308Z,72.62
2023-05-15T02:54:43.047Z,73.13
2023-05-15T02:57:11.485Z,73.06
2023-05-15T02:59:40.068Z,72.96
2023-05-15T03:02:09.858Z,73.02
2023-05-15T03:04:38.797Z,72.62
2023-05-15T03:07:07.312Z,72.85
2023-05-15T03:09:35.785Z,73.04
2023-05-15T03:12:04.351Z,73.39
2023-05-15T03:14:32.778Z,73.11
2023-05-15T03:17:01.780Z,73.92
2023-05-15T03:19:32.118Z,73.57
2023-05-15T03:22:00.756Z,73.73
2023-05-15T03:24:29.155Z,73.64
2023-05-15T03:26:57.604Z,73.80
2023-05-15T03:29:26.399Z,73.64
2023-05-15T03:31:54.942Z,73.89
2023-05-15T03:34:23.458Z,74.11
2023-05-15T03:36:53.205Z,74.50
2023-05-15T03:39:21.522Z,74.30
2023-05-15T03:41:50.762Z,74.33
2023-05-15T03:44:19.153Z,74.92
2023-05-15T03:46:48.737Z,74.22
2023-05-15T03:49:17.138Z,75.19
2023-05-15T03:51:45.539Z,74.65
2023-05-15T03:54:16.830Z,75.15
2023-05-15T03:56:45.446Z,74.70
2023-05-15T03:59:13.916Z,74.82
2023-05-15T04:01:59.417Z,74.91
2023-05-15T04:04:30.832Z,74.64
2023-05-15T04:06:59.199Z,74.29
2023-05-15T04:09:28.886Z,74.02
2023-05-15T04:11:57.342Z,73.74
2023-05-15T04:14:25.841Z,73.36
2023-05-15T04:16:54.291Z,73.47
2023-05-15T04:19:22.746Z,74.02
2023-05-15T04:21:51.150Z,74.22
2023-05-15T04:24:19.551Z,74.22
2023-05-15T04:26:49.477Z,73.55
2023-05-15T04:29:17.930Z,72.94
2023-05-15T04:31:46.456Z,72.54
2023-05-15T04:34:14.986Z,71.89
2023-05-15T04:36:43.445Z,71.43
2023-05-15T04:39:12.565Z,70.76
2023-05-15T04:41:41.032Z,69.91
2023-05-15T04:44:10.823Z,69.79
2023-05-15T04:46:39.772Z,70.02
2023-05-15T04:49:08.223Z,69.19
2023-05-15T04:51:36.527Z,68.46
2023-05-15T04:54:05.153Z,67.79
2023-05-15T04:56:33.553Z,67.29
2023-05-15T04:59:02.165Z,66.75
2023-05-15T05:01:32.086Z,65.86
2023-05-15T05:04:00.452Z,65.07
2023-05-15T05:06:30.463Z,64.40
2023-05-15T05:08:59.375Z,64.89
2023-05-15T05:11:27.777Z,64.00
2023-05-15T05:13:56.154Z,64.64
2023-05-15T05:16:24.649Z,63.99
2023-05-15T05:18:54.488Z,63.57
2023-05-15T05:21:22.887Z,64.67
2023-05-15T05:23:51.250Z,64.34
2023-05-15T05:26:19.697Z,63.56
2023-05-15T05:28:48.085Z,63.58
2023-05-15T05:31:16.597Z,62.64
2023-05-15T05:33:45.081Z,63.15
2023-05-15T05:36:14.854Z,61.54
2023-05-15T05:38:43.742Z,61.22
2023-05-15T05:41:12.136Z,60.65
2023-05-15T05:43:40.511Z,60.26
2023-05-15T05:46:08.883Z,59.52
2023-05-15T05:48:37.285Z,60.02
2023-05-15T05:51:06.092Z,59.55
2023-05-15T05:53:37.603Z,59.15
2023-05-15T05:56:08.266Z,59.06
2023-05-15T05:58:36.622Z,58.72
2023-05-15T06:01:05.819Z,58.24
2023-05-15T06:03:35.056Z,57.38
2023-05-15T06:06:03.580Z,58.37
2023-05-15T06:08:32.555Z,57.03
2023-05-15T06:11:03.288Z,57.18
2023-05-15T06:13:31.847Z,56.52
2023-05-15T06:16:00.209Z,55.70
2023-05-15T06:18:28.591Z,54.74
2023-05-15T06:21:00.225Z,54.23
2023-05-15T06:23:28.850Z,54.22
2023-05-15T06:25:57.289Z,53.27
2023-05-15T06:28:27.054Z,52.51
2023-05-15T06:30:55.504Z,52.43
2023-05-15T06:33:24.013Z,52.62
2023-05-15T06:35:52.577Z,51.83
2023-05-15T06:38:21.015Z,51.87
2023-05-15T06:40:49.466Z,51.40
2023-05-15T06:43:17.843Z,50.39
2023-05-15T06:45:47.710Z,49.53
2023-05-15T06:48:16.256Z,49.08
2023-05-15T06:50:46.502Z,49.43
2023-05-15T06:53:14.835Z,49.63
2023-05-15T06:55:43.216Z,50.58
2023-05-15T06:58:11.666Z,51.32
2023-05-15T07:00:40.353Z,51.91
2023-05-15T07:03:10.111Z,53.18
2023-05-15T07:05:38.475Z,53.85
2023-05-15T07:08:07.170Z,54.48
2023-05-15T07:10:35.572Z,54.12
2023-05-15T07:13:03.961Z,53.77
2023-05-15T07:15:32.430Z,52.13
2023-05-15T07:18:00.970Z,50.86
2023-05-15T07:20:32.746Z,49.22
2023-05-15T07:23:03.399Z,47.09
2023-05-15T07:25:31.803Z,46.65
2023-05-15T07:28:00.230Z,45.89
2023-05-15T07:30:28.649Z,45.16
2023-05-15T07:32:57.142Z,45.58
2023-05-15T07:35:27.142Z,44.90
2023-05-15T07:37:57.122Z,43.90
2023-05-15T07:40:25.690Z,44.41
2023-05-15T07:42:54.189Z,45.17
2023-05-15T07:45:22.821Z,42.48
2023-05-15T07:47:51.730Z,41.95
2023-05-15T07:50:20.238Z,41.09
2023-05-15T07:52:48.548Z,41.07
2023-05-15T07:55:18.217Z,41.67
2023-05-15T07:57:53.493Z,40.81
2023-05-15T08:00:23.100Z,41.48
2023-05-15T08:02:52.998Z,39.36
2023-05-15T08:05:21.481Z,38.69
2023-05-15T08:07:49.810Z,38.10
2023-05-15T08:10:19.680Z,38.54
2023-05-15T08:12:48.702Z,38.60
2023-05-15T08:15:17.267Z,38.70
2023-05-15T08:17:45.657Z,37.28
2023-05-15T08:20:14.824Z,38.64
2023-05-15T08:22:43.238Z,36.43
2023-05-15T08:25:11.905Z,36.17
2023-05-15T08:27:41.667Z,36.57
2023-05-15T08:30:11.335Z,35.39
2023-05-15T08:32:39.744Z,35.83
2023-05-15T08:35:09.555Z,36.42
2023-05-15T08:37:38.131Z,36.37
2023-05-15T08:40:08.245Z,36.51
2023-05-15T08:42:46.375Z,36.69
2023-05-15T08:45:15.724Z,35.72
2023-05-15T08:47:44.542Z,35.38
2023-05-15T08:50:15.314Z,34.47
2023-05-15T08:52:46.994Z,35.80
2023-05-15T08:55:16.220Z,37.48
2023-05-15T08:57:46.423Z,35.26
2023-05-15T09:00:16.565Z,34.90
2023-05-15T09:02:45.110Z,34.67
2023-05-15T09:05:14.957Z,36.36
2023-05-15T09:07:46.349Z,34.04
2023-05-15T09:10:15.581Z,34.23
2023-05-15T09:12:46.706Z,33.52
2023-05-15T09:15:18.016Z,34.41
2023-05-15T09:17:47.821Z,34.24
2023-05-15T09:20:31.457Z,33.70
2023-05-15T09:23:02.203Z,32.73
2023-05-15T09:25:41.686Z,32.63
2023-05-15T09:28:26.341Z,33.92
2023-05-15T09:31:01.179Z,33.96
2023-05-15T09:33:34.435Z,31.01
2023-05-15T09:36:03.331Z,32.29
2023-05-15T09:38:34.548Z,31.51
2023-05-15T09:41:04.397Z,30.69
2023-05-15T09:43:38.377Z,31.51
2023-05-15T09:46:08.363Z,30.98
2023-05-15T09:48:37.173Z,32.65
2023-05-15T09:51:07.734Z,29.99
2023-05-15T09:53:38.537Z,33.22
2023-05-15T09:56:07.436Z,34.32
2023-05-15T09:58:37.445Z,34.32
2023-05-15T10:01:13.434Z,34.83
2023-05-15T10:03:43.775Z,37.46
2023-05-15T10:06:20.079Z,35.85
2023-05-15T10:08:54.178Z,38.33
2023-05-15T10:11:24.357Z,36.24
2023-05-15T10:13:54.866Z,37.09
2023-05-15T10:16:23.866Z,37.50
2023-05-15T10:18:53.556Z,37.72
2023-05-15T10:21:23.086Z,39.47
2023-05-15T10:23:52.573Z,37.79
2023-05-15T10:26:25.782Z,37.30
2023-05-15T10:28:56.469Z,35.36
2023-05-15T10:31:26.042Z,37.37
2023-05-15T10:33:56.622Z,37.97
2023-05-15T10:36:26.012Z,38.25
2023-05-15T10:38:54.518Z,37.44
2023-05-15T10:41:24.287Z,38.18
2023-05-15T10:43:56.225Z,39.06
2023-05-15T10:46:25.057Z,39.27
2023-05-15T10:48:53.908Z,40.07
2023-05-15T10:51:28.452Z,41.47
2023-05-15T10:53:58.395Z,42.11
2023-05-15T10:56:29.571Z,41.99
2023-05-15T10:58:59.443Z,40.85
2023-05-15T11:01:29.683Z,41.02
2023-05-15T11:04:13.189Z,40.04
2023-05-15T11:06:43.949Z,40.31
2023-05-15T11:09:38.561Z,39.47
2023-05-15T11:12:09.617Z,39.71
2023-05-15T11:14:41.769Z,41.59
2023-05-15T11:17:11.799Z,42.89
2023-05-15T11:20:00.933Z,41.60
2023-05-15T11:22:32.517Z,41.68
2023-05-15T11:25:03.180Z,43.37
2023-05-15T11:27:34.210Z,42.36
2023-05-15T11:30:17.927Z,41.15
2023-05-15T11:32:52.286Z,41.23
2023-05-15T11:35:24.314Z,39.83
2023-05-15T11:37:56.825Z,38.96
2023-05-15T11:40:27.965Z,38.54
2023-05-15T11:43:09.671Z,38.73
2023-05-15T11:45:41.712Z,38.10
2023-05-15T11:48:16.040Z,39.40
2023-05-15T11:50:45.498Z,38.36
2023-05-15T11:53:14.902Z,39.49
2023-05-15T11:55:45.967Z,39.10
2023-05-15T11:58:16.582Z,40.35
2023-05-15T12:00:48.534Z,39.64
2023-05-15T12:03:19.325Z,40.44
2023-05-15T12:05:58.281Z,40.90
2023-05-15T12:08:33.104Z,39.59
2023-05-15T12:11:03.133Z,41.49
2023-05-15T12:13:32.415Z,39.86
2023-05-15T12:16:04.006Z,39.79
2023-05-15T12:18:33.253Z,39.39
2023-05-15T12:21:02.107Z,40.31
2023-05-15T12:23:30.492Z,40.18
2023-05-15T12:26:03.370Z,42.40
2023-05-15T12:28:35.605Z,41.26
2023-05-15T12:31:05.858Z,41.72
2023-05-15T12:33:34.360Z,41.66
2023-05-15T12:36:02.863Z,41.21
2023-05-15T12:38:33.871Z,40.98
2023-05-15T12:41:02.316Z,41.25
2023-05-15T12:43:32.981Z,42.17
2023-05-15T12:46:01.338Z,41.75
2023-05-15T12:48:34.439Z,42.71
2023-05-15T12:51:07.855Z,41.15
2023-05-15T12:53:39.707Z,41.43
2023-05-15T12:56:09.023Z,40.70
2023-05-15T12:58:38.373Z,41.29
2023-05-15T13:01:06.955Z,41.92
2023-05-15T13:03:37.201Z,40.86
2023-05-15T13:06:07.143Z,41.23
2023-05-15T13:08:42.762Z,39.25
2023-05-15T13:11:15.010Z,38.45
2023-05-15T13:13:45.362Z,36.59
2023-05-15T13:16:22.198Z,38.52
2023-05-15T13:18:52.164Z,38.95
2023-05-15T13:21:20.749Z,35.45
2023-05-15T13:23:49.160Z,38.23
2023-05-15T13:26:17.554Z,36.40
2023-05-15T13:28:45.934Z,35.11
2023-05-15T13:31:14.479Z,37.69
2023-05-15T13:33:42.841Z,38.95
2023-05-15T13:36:13.607Z,39.38
2023-05-15T13:38:42.041Z,39.66
2023-05-15T13:41:10.620Z,39.57
2023-05-15T13:43:39.043Z,40.00
2023-05-15T13:46:07.402Z,40.10
2023-05-15T13:48:35.782Z,40.70
2023-05-15T13:51:04.104Z,40.98
2023-05-15T13:53:33.858Z,40.35
2023-05-15T13:56:02.200Z,41.43
2023-05-15T13:58:30.569Z,42.51
2023-05-15T14:00:58.983Z,42.96
2023-05-15T14:03:27.513Z,43.29
2023-05-15T14:05:55.969Z,45.81
2023-05-15T14:08:24.316Z,48.15
2023-05-15T14:10:54.778Z,49.28
2023-05-15T14:13:24.440Z,49.35
2023-05-15T14:15:52.857Z,50.43
2023-05-15T14:18:21.185Z,50.18
2023-05-15T14:20:49.494Z,49.39
2023-05-15T14:23:17.843Z,49.79
2023-05-15T14:25:46.184Z,49.50
2023-05-15T14:28:15.869Z,50.44
2023-05-15T14:30:44.377Z,52.27
2023-05-15T14:33:12.714Z,55.38
2023-05-15T14:35:41.150Z,56.82
2023-05-15T14:38:09.579Z,57.21
2023-05-15T14:40:38.035Z,57.59
2023-05-15T14:43:06.561Z,57.29
2023-05-15T14:45:36.376Z,59.00
2023-05-15T14:48:05.143Z,58.89
2023-05-15T14:50:33.634Z,58.76
2023-05-15T14:53:02.028Z,60.02
2023-05-15T14:55:30.660Z,59.78
2023-05-15T14:58:00.064Z,59.44
2023-05-15T15:00:28.643Z,58.47
2023-05-15T15:02:59.432Z,59.28
2023-05-15T15:05:28.112Z,58.60
2023-05-15T15:08:05.686Z,58.75
2023-05-15T15:10:35.546Z,58.95
2023-05-15T15:13:04.174Z,57.90
2023-05-15T15:15:33.638Z,58.18
2023-05-15T15:18:03.390Z,57.67
2023-05-15T15:20:32.018Z,57.24
2023-05-15T15:23:00.388Z,57.89
2023-05-15T15:25:30.725Z,58.45
2023-05-15T15:28:00.528Z,58.18
2023-05-15T15:30:29.045Z,57.24
2023-05-15T15:32:57.956Z,56.28
2023-05-15T15:35:27.983Z,55.14
2023-05-15T15:37:56.459Z,56.26
2023-05-15T15:40:25.629Z,58.03
2023-05-15T15:42:54.761Z,58.34
2023-05-15T15:45:24.181Z,57.10
2023-05-15T15:47:52.573Z,57.52
2023-05-15T15:50:21.332Z,57.52
2023-05-15T15:52:51.055Z,56.78
2023-05-15T15:55:19.427Z,57.55
2023-05-15T15:57:47.880Z,58.32
2023-05-15T16:00:17.418Z,58.78
2023-05-15T16:02:46.520Z,58.80
2023-05-15T16:05:15.016Z,59.67
2023-05-15T16:07:43.379Z,59.96
2023-05-15T16:10:13.501Z,59.34
2023-05-15T16:12:43.028Z,59.00
2023-05-15T16:15:22.449Z,59.27
2023-05-15T16:17:53.243Z,59.52
2023-05-15T16:20:22.576Z,59.86
2023-05-15T16:22:51.034Z,59.61
2023-05-15T16:25:20.803Z,59.52
2023-05-15T16:27:49.189Z,58.27
2023-05-15T16:30:17.538Z,57.90
2023-05-15T16:32:46.474Z,57.68
2023-05-15T16:35:14.874Z,57.15
2023-05-15T16:37:43.225Z,58.28
2023-05-15T16:40:12.783Z,58.09
2023-05-15T16:42:43.037Z,58.58
2023-05-15T16:45:11.862Z,58.98
2023-05-15T16:47:41.397Z,59.24
2023-05-15T16:50:10.790Z,58.81
2023-05-15T16:52:45.251Z,59.15
2023-05-15T16:55:16.311Z,59.65
2023-05-15T16:57:47.297Z,59.27
2023-05-15T17:00:17.127Z,59.91
2023-05-15T17:02:45.934Z,60.04
2023-05-15T17:05:15.175Z,59.63
2023-05-15T17:07:45.162Z,59.53
2023-05-15T17:10:14.572Z,59.12
2023-05-15T17:12:43.025Z,58.65
2023-05-15T17:15:13.771Z,59.22
2023-05-15T17:17:42.176Z,59.67
2023-05-15T17:20:12.477Z,59.96
2023-05-15T17:22:40.855Z,59.42
2023-05-15T17:25:09.963Z,58.91
2023-05-15T17:27:41.287Z,59.08
2023-05-15T17:30:12.680Z,59.08
2023-05-15T17:32:41.460Z,59.18
2023-05-15T17:35:11.502Z,59.21
2023-05-15T17:37:40.359Z,59.20
2023-05-15T17:40:10.134Z,58.46
2023-05-15T17:42:38.467Z,58.25
2023-05-15T17:45:08.196Z,58.77
2023-05-15T17:47:37.974Z,58.00
2023-05-15T17:50:07.998Z,58.42
2023-05-15T17:52:37.722Z,58.01
2023-05-15T17:55:07.706Z,58.41
2023-05-15T17:57:35.980Z,57.94
2023-05-15T18:00:05.848Z,57.63
2023-05-15T18:02:41.855Z,57.81
2023-05-15T18:05:10.665Z,58.06
2023-05-15T18:07:39.073Z,58.32
2023-05-15T18:10:09.744Z,58.63
2023-05-15T18:12:38.041Z,58.47
2023-05-15T18:15:07.588Z,58.46
2023-05-15T18:17:35.927Z,58.57
2023-05-15T18:20:07.684Z,58.45
2023-05-15T18:22:35.969Z,58.15
2023-05-15T18:25:04.700Z,57.68
2023-05-15T18:27:33.152Z,57.80
2023-05-15T18:30:02.400Z,57.32
2023-05-15T18:32:30.726Z,58.05
2023-05-15T18:34:59.661Z,58.11
2023-05-15T18:37:29.337Z,58.15
2023-05-15T18:39:58.790Z,58.24
2023-05-15T18:42:27.341Z,58.04
2023-05-15T18:44:56.061Z,58.40
2023-05-15T18:47:24.472Z,58.11
2023-05-15T18:49:52.823Z,58.01
2023-05-15T18:52:21.394Z,58.41
2023-05-15T18:54:52.552Z,57.23
2023-05-15T18:57:21.010Z,57.06
2023-05-15T18:59:49.342Z,56.99
2023-05-15T19:02:17.667Z,57.04
2023-05-15T19:04:46.050Z,57.42
2023-05-15T19:07:14.421Z,57.10
2023-05-15T19:09:42.778Z,56.56
2023-05-15T19:12:12.458Z,56.18
2023-05-15T19:14:40.776Z,56.73
2023-05-15T19:17:09.088Z,56.38
2023-05-15T19:19:37.412Z,56.25
2023-05-15T19:22:06.314Z,56.44
2023-05-15T19:24:34.695Z,56.44
2023-05-15T19:27:02.965Z,56.72
2023-05-15T19:29:33.750Z,57.23
2023-05-15T19:32:02.949Z,56.83
2023-05-15T19:34:31.394Z,57.00
2023-05-15T19:36:59.733Z,57.56
2023-05-15T19:39:28.048Z,56.90
2023-05-15T19:41:57.562Z,57.33
2023-05-15T19:44:25.934Z,57.13
2023-05-15T19:46:55.611Z,56.92
2023-05-15T19:49:23.946Z,57.18
2023-05-15T19:51:52.300Z,57.03
2023-05-15T19:54:20.657Z,57.17
2023-05-15T19:56:48.969Z,57.56
2023-05-15T19:59:17.321Z,57.30
2023-05-15T20:01:46.055Z,57.69
2023-05-15T20:04:15.767Z,57.89
2023-05-15T20:06:44.103Z,58.13
2023-05-15T20:09:12.398Z,58.41
2023-05-15T20:11:40.745Z,58.64
2023-05-15T20:14:09.067Z,58.16
2023-05-15T20:16:37.591Z,58.53
2023-05-15T20:19:06.502Z,58.68
2023-05-15T20:21:36.326Z,58.73
2023-05-15T20:24:05.083Z,58.78
2023-05-15T20:26:35.828Z,59.10
2023-05-15T20:29:04.491Z,59.33
2023-05-15T20:31:33.671Z,59.33
2023-05-15T20:34:02.467Z,59.64
2023-05-15T20:36:32.599Z,59.83
2023-05-15T20:39:07.123Z,59.32
2023-05-15T20:41:37.038Z,60.36
2023-05-15T20:44:05.359Z,59.82
2023-05-15T20:46:33.785Z,59.27
2023-05-15T20:49:02.228Z,58.79
2023-05-15T20:51:30.986Z,58.33
2023-05-15T20:53:59.339Z,58.31
2023-05-15T20:56:29.247Z,57.27
2023-05-15T20:58:59.800Z,57.48
2023-05-15T21:01:28.489Z,57.76
2023-05-15T21:03:57.133Z,58.45
2023-05-15T21:06:26.057Z,58.38
2023-05-15T21:08:54.535Z,58.81
2023-05-15T21:11:22.959Z,58.94
2023-05-15T21:13:52.822Z,58.92
2023-05-15T21:16:21.294Z,58.76
2023-05-15T21:18:49.764Z,58.94
2023-05-15T21:21:18.155Z,59.64
2023-05-15T21:23:46.517Z,59.00
2023-05-15T21:26:14.949Z,59.30
2023-05-15T21:28:43.374Z,58.77
2023-05-15T21:31:13.334Z,59.11
2023-05-15T21:33:41.756Z,60.19
2023-05-15T21:36:10.819Z,60.26
2023-05-15T21:38:39.448Z,60.39
2023-05-15T21:41:07.847Z,59.62
2023-05-15T21:43:36.331Z,60.37
2023-05-15T21:46:04.954Z,60.83
2023-05-15T21:48:34.725Z,60.67
2023-05-15T21:51:03.672Z,61.08
2023-05-15T21:53:32.152Z,61.33
2023-05-15T21:56:01.077Z,61.60
2023-05-15T21:58:29.953Z,61.96
2023-05-15T22:00:58.322Z,62.01
2023-05-15T22:03:26.879Z,62.40
2023-05-15T22:05:57.005Z,62.61
2023-05-15T22:08:25.560Z,62.62
2023-05-15T22:10:55.306Z,61.83
2023-05-15T22:13:23.911Z,61.66
2023-05-15T22:15:52.598Z,62.52
2023-05-15T22:18:21.280Z,62.58
2023-05-15T22:20:50.497Z,62.91
2023-05-15T22:23:20.471Z,63.17
2023-05-15T22:25:49.345Z,63.32
2023-05-15T22:28:18.015Z,63.31
2023-05-15T22:30:46.528Z,63.55
2023-05-15T22:33:15.126Z,63.28
2023-05-15T22:35:43.760Z,63.21
2023-05-15T22:38:12.368Z,64.30
2023-05-15T22:40:42.224Z,63.48
2023-05-15T22:43:10.685Z,64.52
2023-05-15T22:45:39.087Z,63.97
2023-05-15T22:48:08.171Z,64.09
2023-05-15T22:50:36.786Z,64.87
2023-05-15T22:53:05.202Z,65.11
2023-05-15T22:55:33.597Z,64.49
2023-05-15T22:58:04.036Z,65.02
2023-05-15T23:00:32.554Z,64.39
2023-05-15T23:03:01.060Z,64.73
2023-05-15T23:05:29.576Z,64.57
2023-05-15T23:07:57.974Z,64.43
2023-05-15T23:10:26.569Z,64.71
2023-05-15T23:12:55.278Z,64.71
2023-05-15T23:15:25.211Z,65.41
2023-05-15T23:17:53.801Z,65.29
2023-05-15T23:20:22.323Z,64.67
2023-05-15T23:22:50.711Z,64.75
2023-05-15T23:25:19.586Z,64.68
2023-05-15T23:27:48.032Z,65.21
2023-05-15T23:30:17.266Z,65.41
2023-05-15T23:32:47.068Z,65.40
2023-05-15T23:35:15.489Z,65.94
2023-05-15T23:37:44.038Z,66.31
2023-05-15T23:40:14.674Z,65.54
2023-05-15T23:42:43.167Z,65.57
2023-05-15T23:45:13.754Z,65.99
2023-05-15T23:47:42.554Z,65.77
2023-05-15T23:50:12.518Z,66.08
2023-05-15T23:52:40.957Z,65.38
2023-05-15T23:55:10.492Z,65.70
2023-05-15T23:57:38.891Z,65.82
